Search for airport 
image banner adimage banner adimage banner ad
image banner ad

KNUQ - Moffett Federal Afld

Located in Mountain View, United States

ICAO - NUQ, IATA -

Data provided by Airmate  

General information

Coordinates: N37°24'58" W122°2'57"
Elevation is 37 feet MSL.
Magnetic variation is 16° East
View others Airports in California

Operational data

Special qualification required
Current time UTC:
Current local time:
Weather
METAR: KNUQ 150810Z AUTO 00000KT 10SM CLR 15/11 A3010 RMK AO2
View NOTAMs / SUP AIP / TFR affecting this airport [VIEW]
Communications frequencies: [VIEW]

Runways:

RWY identifierQFULength (ft)Width (ft)SurfaceLDA (ft)
14R157°8122200ASPH
32L337°8122200ASPH
14L157°9197200CONC
32R337°9197200CONC

Airport contact information

Address: Mountain View United States

Satellite view of KNUQ